Time;durP1;ratioP1;P1;durP2;ratioP2;P2;SDS_P1;SDS_P2;PMS_P1;PMS_P2;Temp;Humidity;BMP_temperature;BMP_pressure;BME280_temperature;BME280_humidity;BME280_pressure;Samples;Min_cycle;Max_cycle;Signal;HPM_P1;HPM_P2
2022/08/11 00:01:48;;;;;;;8.70;7.97;;;;;;;24.28;61.12;99397.06;5067053;28;20199;-63
2022/08/11 00:04:18;;;;;;;8.80;8.03;;;;;;;24.22;61.21;99405.19;5068471;28;20195;-63
2022/08/11 00:06:46;;;;;;;10.33;7.93;;;;;;;24.05;61.21;99369.06;5069691;28;20677;-63
2022/08/11 00:09:17;;;;;;;9.77;8.77;;;;;;;24.22;61.26;99394.69;5067957;28;20624;-62
2022/08/11 00:11:48;;;;;;;9.67;8.73;;;;;;;24.12;61.68;99391.56;5067296;28;20442;-63
2022/08/11 00:14:18;;;;;;;9.30;8.50;;;;;;;24.09;61.77;99389.06;5065181;28;20215;-65
2022/08/11 00:16:55;;;;;;;12.53;8.40;;;;;;;24.10;61.33;99384.66;5066473;28;20203;-64
2022/08/11 00:19:25;;;;;;;8.37;7.67;;;;;;;24.07;61.85;99381.22;5067486;28;20629;-64
2022/08/11 00:21:53;;;;;;;8.67;7.97;;;;;;;24.08;62.08;99387.34;5065825;28;20184;-66
2022/08/11 00:24:22;;;;;;;9.17;8.33;;;;;;;24.02;61.80;99380.56;5060691;28;20208;-65
2022/08/11 00:26:50;;;;;;;9.47;8.20;;;;;;;24.02;62.07;99390.19;5065053;28;20187;-65
2022/08/11 00:29:17;;;;;;;9.40;8.32;;;;;;;24.03;62.00;99386.66;5065610;28;20438;-65
2022/08/11 00:31:47;;;;;;;8.93;8.17;;;;;;;23.95;62.24;99371.19;5066832;28;20264;-65
2022/08/11 00:34:19;;;;;;;10.87;8.50;;;;;;;23.90;62.79;99390.66;5063478;28;20199;-65
2022/08/11 00:36:51;;;;;;;9.50;8.63;;;;;;;23.82;62.81;99383.09;5067790;28;20191;-57
2022/08/11 00:39:22;;;;;;;10.07;9.07;;;;;;;23.70;63.08;99385.38;5069175;28;20209;-57
2022/08/11 00:42:05;;;;;;;12.43;9.10;;;;;;;23.69;63.71;99395.00;5069764;28;20195;-57
2022/08/11 00:44:52;;;;;;;9.90;8.60;;;;;;;23.62;64.43;99393.53;5069886;28;20217;-57
2022/08/11 00:47:34;;;;;;;10.17;9.27;;;;;;;23.59;65.07;99391.03;5070023;28;20744;-57
2022/08/11 00:50:18;;;;;;;9.97;8.73;;;;;;;23.57;65.29;99395.47;5070056;28;20176;-57
2022/08/11 00:52:59;;;;;;;12.83;9.07;;;;;;;23.56;66.03;99400.78;5069063;28;20195;-57
2022/08/11 00:55:59;;;;;;;10.35;9.45;;;;;;;23.49;66.86;99400.13;5069597;28;20996;-57
2022/08/11 00:59:14;;;;;;;9.93;9.10;;;;;;;23.46;67.45;99397.63;5070235;28;20195;-57
2022/08/11 01:01:56;;;;;;;9.43;8.67;;;;;;;23.38;67.95;99397.91;5070010;28;20187;-58
2022/08/11 01:05:00;;;;;;;11.73;9.90;;;;;;;23.37;68.44;99401.47;5057005;28;20670;-58
2022/08/11 01:08:04;;;;;;;10.60;8.97;;;;;;;23.22;68.56;99381.03;5069861;28;20621;-57
2022/08/11 01:10:56;;;;;;;9.43;8.70;;;;;;;23.26;68.50;99384.38;5070263;28;20183;-57
2022/08/11 01:13:49;;;;;;;10.20;9.17;;;;;;;23.33;68.12;99380.63;5068558;28;20202;-57
2022/08/11 01:17:04;;;;;;;9.93;9.03;;;;;;;23.27;68.29;99380.84;5069173;28;20727;-57
2022/08/11 01:20:10;;;;;;;8.90;8.20;;;;;;;23.23;67.66;99376.63;4991978;28;20239;-57
2022/08/11 01:23:04;;;;;;;9.60;8.80;;;;;;;23.28;67.18;99374.69;5069639;28;20180;-58
2022/08/11 01:26:01;;;;;;;9.30;8.50;;;;;;;23.24;67.21;99375.72;5053296;28;20191;-58
2022/08/11 01:28:56;;;;;;;9.03;8.10;;;;;;;23.28;66.81;99379.94;5069692;28;20627;-58
2022/08/11 01:32:10;;;;;;;10.63;8.17;;;;;;;23.27;66.15;99381.69;5066703;28;20234;-57
2022/08/11 01:35:21;;;;;;;8.70;7.90;;;;;;;23.30;66.07;99376.34;5045953;28;20200;-57
2022/08/11 01:38:40;;;;;;;10.63;8.30;;;;;;;23.33;66.12;99380.63;5055333;28;20570;-57
2022/08/11 01:44:36;;;;;;;8.40;7.70;;;;;;;23.46;65.11;99377.50;5067626;28;20452;-57
2022/08/11 01:44:56;;;;;;;9.70;8.57;;;;;;;23.49;64.17;99372.16;5069233;28;20642;-59
2022/08/11 01:47:52;;;;;;;7.47;6.87;;;;;;;23.49;64.01;99373.91;5068694;28;20628;-60
2022/08/11 01:50:40;;;;;;;9.20;8.10;;;;;;;23.50;63.85;99383.50;5068761;28;20196;-60
2022/08/11 01:53:21;;;;;;;8.88;8.07;;;;;;;23.49;63.47;99385.25;5068343;28;20928;-60
2022/08/11 01:55:58;;;;;;;10.83;7.37;;;;;;;23.52;63.77;99384.28;5068844;28;20634;-60
2022/08/11 01:58:33;;;;;;;8.43;7.73;;;;;;;23.54;63.45;99381.63;5069180;28;20214;-61
2022/08/11 02:01:12;;;;;;;9.10;8.13;;;;;;;23.58;63.12;99378.81;5066099;28;20578;-61
2022/08/11 02:03:46;;;;;;;11.40;7.07;;;;;;;23.56;63.25;99380.66;5066056;28;20187;-65
2022/08/11 02:09:15;;;;;;;12.63;9.80;;;;;;;23.51;62.92;99368.63;5070726;28;20183;-59
2022/08/11 02:11:47;;;;;;;8.50;7.50;;;;;;;23.50;63.29;99375.63;5070110;28;20225;-59
2022/08/11 02:14:24;;;;;;;8.53;7.73;;;;;;;23.38;63.28;99373.47;5071835;28;20195;-59
2022/08/11 02:17:14;;;;;;;8.10;7.33;;;;;;;23.33;63.70;99368.38;5072095;28;20249;-59
2022/08/11 02:25:37;;;;;;;11.53;9.03;;;;;;;23.42;63.19;99380.31;5072110;28;20190;-58
2022/08/11 02:28:12;;;;;;;8.47;7.53;;;;;;;23.24;63.12;99339.84;5070547;28;20191;-58
2022/08/11 02:33:21;;;;;;;8.73;8.03;;;;;;;23.41;63.06;99370.72;5066940;28;20187;-58
2022/08/11 02:33:37;;;;;;;8.47;7.77;;;;;;;23.40;63.03;99372.50;5071733;28;20646;-58
2022/08/11 02:36:10;;;;;;;8.77;8.07;;;;;;;23.43;62.39;99367.13;5072200;28;20180;-58
2022/08/11 02:39:00;;;;;;;8.17;7.37;;;;;;;23.42;62.22;99362.81;5072301;28;20180;-58
2022/08/11 02:44:32;;;;;;;9.30;8.40;;;;;;;23.51;62.59;99368.63;5072663;28;20191;-58
2022/08/11 02:47:13;;;;;;;9.97;8.17;;;;;;;23.51;62.14;99369.47;5072518;28;20194;-58
2022/08/11 02:49:53;;;;;;;8.60;7.90;;;;;;;23.54;62.23;99368.50;5071471;28;20199;-58
2022/08/11 02:52:30;;;;;;;8.57;7.83;;;;;;;23.49;62.53;99366.91;5072298;28;20256;-58
2022/08/11 02:55:20;;;;;;;10.33;7.67;;;;;;;23.44;62.79;99368.84;5072331;28;20195;-57
2022/08/11 02:57:53;;;;;;;9.60;7.30;;;;;;;23.45;62.69;99370.56;5072158;28;20291;-58
2022/08/11 03:00:21;;;;;;;8.80;7.90;;;;;;;23.36;62.84;99375.25;5071924;28;20286;-57
2022/08/11 03:03:01;;;;;;;8.57;7.87;;;;;;;23.42;62.35;99375.94;5071849;28;20188;-57
2022/08/11 03:05:45;;;;;;;8.60;7.70;;;;;;;23.48;62.15;99386.19;5071856;28;20172;-58
2022/08/11 03:08:23;;;;;;;9.70;7.23;;;;;;;23.45;61.86;99381.06;5071792;28;20245;-60
2022/08/11 03:16:52;;;;;;;7.27;6.67;;;;;;;23.39;61.98;99383.91;5071224;28;20206;-58
2022/08/11 03:19:26;;;;;;;7.60;7.00;;;;;;;23.28;62.05;99378.19;5067264;28;20555;-57
2022/08/11 03:22:03;;;;;;;8.23;7.43;;;;;;;23.34;61.84;99377.09;5063249;28;20426;-57
2022/08/11 03:24:41;;;;;;;8.90;8.03;;;;;;;23.34;62.06;99380.56;5071369;28;20195;-57
2022/08/11 03:27:22;;;;;;;8.00;7.20;;;;;;;23.40;62.45;99379.53;5071293;28;20184;-57
2022/08/11 03:30:05;;;;;;;9.07;8.37;;;;;;;23.38;62.77;99378.69;5071194;28;20199;-57
2022/08/11 03:32:38;;;;;;;9.17;8.47;;;;;;;23.38;62.32;99369.06;5071149;28;20199;-57
2022/08/11 03:35:08;;;;;;;12.23;7.47;;;;;;;23.45;61.90;99373.19;5071605;28;20263;-57
2022/08/11 03:37:50;;;;;;;9.63;8.27;;;;;;;23.47;62.28;99363.50;5071506;28;20207;-57
2022/08/11 03:43:51;;;;;;;9.83;8.67;;;;;;;23.54;62.07;99374.59;5071405;28;20597;-57
2022/08/11 03:46:29;;;;;;;9.27;8.13;;;;;;;23.63;61.84;99379.50;5070701;28;20475;-57
2022/08/11 03:49:07;;;;;;;8.43;7.60;;;;;;;23.73;61.55;99383.50;5070736;28;20183;-57
2022/08/11 03:51:46;;;;;;;8.77;7.73;;;;;;;23.84;60.32;99385.69;5071197;28;20219;-57
2022/08/11 03:54:28;;;;;;;14.30;11.30;;;;;;;23.85;60.67;99385.63;5071143;28;20203;-57
2022/08/11 03:57:50;;;;;;;9.97;9.03;;;;;;;23.90;60.40;99380.16;5069785;28;20685;-57
2022/08/11 04:00:54;;;;;;;8.47;7.77;;;;;;;23.92;60.38;99391.50;5070649;28;20191;-58
2022/08/11 04:04:07;;;;;;;9.13;8.00;;;;;;;23.96;60.68;99385.19;4989497;28;20255;-58
2022/08/11 04:07:06;;;;;;;10.03;8.60;;;;;;;24.01;60.42;99389.34;5070492;28;20195;-59
2022/08/11 04:10:12;;;;;;;13.85;12.43;;;;;;;24.19;59.89;99386.94;5044815;28;20442;-59
2022/08/11 04:13:10;;;;;;;9.10;8.30;;;;;;;24.36;59.11;99393.22;5044907;28;20227;-59
2022/08/11 04:16:15;;;;;;;12.80;9.23;;;;;;;24.44;58.71;99388.50;5070767;28;20700;-59
2022/08/11 04:19:21;;;;;;;8.97;8.17;;;;;;;24.50;58.91;99390.84;5066814;28;20310;-59
2022/08/11 04:22:08;;;;;;;9.00;8.20;;;;;;;24.54;58.85;99396.81;5065251;28;20195;-59
2022/08/11 04:25:07;;;;;;;8.33;7.73;;;;;;;24.53;58.07;99387.25;5070222;28;20192;-59
2022/08/11 04:27:59;;;;;;;8.57;7.87;;;;;;;24.43;58.15;99385.91;5069856;28;20249;-59
2022/08/11 04:30:36;;;;;;;7.83;7.13;;;;;;;24.42;58.20;99392.94;5059616;28;20204;-59
2022/08/11 04:33:35;;;;;;;9.20;8.30;;;;;;;24.41;58.39;99395.63;5049835;28;21010;-58
2022/08/11 04:37:30;;;;;;;9.40;8.60;;;;;;;24.34;58.65;99404.66;5050134;28;20188;-59
2022/08/11 04:39:22;;;;;;;7.90;7.30;;;;;;;24.37;58.05;99400.16;5049712;28;20180;-59
2022/08/11 04:45:36;;;;;;;7.70;7.00;;;;;;;24.36;58.13;99394.97;5049837;28;20297;-66
2022/08/11 05:08:04;;;;;;;8.27;7.63;;;;;;;25.02;56.81;99386.88;5056541;28;20288;-64
2022/08/11 05:10:48;;;;;;;8.40;7.70;;;;;;;25.06;57.60;99390.22;5067312;28;20195;-64
2022/08/11 05:36:08;;;;;;;8.93;7.43;;;;;;;25.41;58.49;99397.38;5068271;28;20199;-57
2022/08/11 05:58:10;;;;;;;11.70;8.20;;;;;;;25.19;57.83;99401.88;5072663;28;20168;-58
2022/08/11 06:00:42;;;;;;;8.20;7.47;;;;;;;25.22;58.09;99396.50;5072369;28;20196;-57
2022/08/11 06:03:11;;;;;;;8.73;7.93;;;;;;;25.28;57.41;99405.88;5071739;28;20252;-58
2022/08/11 06:05:41;;;;;;;7.77;7.17;;;;;;;25.28;56.97;99398.00;5053080;28;20346;-58
2022/08/11 06:08:09;;;;;;;11.90;8.53;;;;;;;25.17;57.62;99404.59;5052623;28;20226;-58
2022/08/11 06:10:39;;;;;;;9.27;8.37;;;;;;;25.27;57.21;99399.78;5052290;28;20190;-57
2022/08/11 06:13:09;;;;;;;8.20;7.40;;;;;;;25.29;57.34;99400.56;5052228;28;20269;-57
2022/08/11 06:15:45;;;;;;;8.93;8.17;;;;;;;25.27;57.28;99405.06;5071685;28;20203;-58
2022/08/11 06:18:13;;;;;;;9.00;7.90;;;;;;;25.42;56.48;99403.50;5072176;28;20219;-58
2022/08/11 06:20:47;;;;;;;9.17;7.63;;;;;;;25.56;56.51;99395.84;5072894;28;20575;-58
2022/08/11 06:23:19;;;;;;;8.47;7.77;;;;;;;25.65;56.33;99404.19;5071105;28;20191;-58
2022/08/11 06:25:48;;;;;;;8.40;7.80;;;;;;;25.70;56.08;99398.69;5072058;28;20180;-58
2022/08/11 06:28:18;;;;;;;9.33;8.53;;;;;;;25.77;56.27;99393.06;5072592;28;20192;-58
2022/08/11 06:30:47;;;;;;;9.30;8.35;;;;;;;25.90;55.76;99392.50;5065395;28;20456;-58
2022/08/11 06:33:17;;;;;;;8.30;7.50;;;;;;;26.04;54.79;99396.16;5071717;28;20697;-58
2022/08/11 06:35:57;;;;;;;8.52;7.78;;;;;;;26.08;55.14;99389.84;5066888;28;20277;-57
2022/08/11 06:38:40;;;;;;;13.05;8.20;;;;;;;26.09;55.14;99391.56;5059806;28;20199;-58
2022/08/11 06:41:32;;;;;;;8.70;8.00;;;;;;;26.09;55.14;99386.28;5059422;28;20203;-57
2022/08/11 06:44:09;;;;;;;9.33;8.50;;;;;;;26.24;55.04;99382.91;5059465;28;20532;-58
2022/08/11 06:46:39;;;;;;;8.70;7.85;;;;;;;26.34;54.55;99392.06;5070379;28;20203;-58
2022/08/11 06:51:10;;;;;;;8.52;7.85;;;;;;;26.51;54.32;99387.75;5062662;28;20200;-58
2022/08/11 06:51:55;;;;;;;9.50;8.60;;;;;;;26.65;53.57;99390.53;5051110;28;20203;-58
2022/08/11 06:54:23;;;;;;;8.90;7.95;;;;;;;26.71;52.97;99391.06;5060595;28;20269;-57
2022/08/11 07:02:33;;;;;;;8.75;7.70;;;;;;;26.73;52.73;99383.06;5069497;28;20190;-58
2022/08/11 07:05:07;;;;;;;9.93;8.18;;;;;;;26.81;52.82;99394.97;5069976;28;20195;-57
2022/08/11 07:16:53;;;;;;;8.57;7.70;;;;;;;27.08;51.59;99394.50;5062776;28;20203;-57
2022/08/11 07:30:34;;;;;;;8.18;7.47;;;;;;;27.27;50.59;99400.50;5069605;28;20513;-58
2022/08/11 07:33:03;;;;;;;11.50;8.18;;;;;;;27.20;49.70;99380.63;5050606;28;20243;-59
2022/08/11 07:35:34;;;;;;;8.00;7.28;;;;;;;27.33;50.13;99398.38;5064814;28;20593;-59
2022/08/11 07:38:05;;;;;;;9.00;8.30;;;;;;;27.43;50.91;99397.00;5066456;28;20450;-58
2022/08/11 07:40:34;;;;;;;10.95;8.18;;;;;;;27.56;49.63;99401.59;5060568;28;20551;-58
2022/08/11 07:43:01;;;;;;;8.93;8.02;;;;;;;27.66;49.37;99403.63;5059243;28;20195;-58
2022/08/11 07:53:47;;;;;;;10.13;8.52;;;;;;;27.71;49.84;99395.47;5069214;28;20222;-58
2022/08/11 07:56:15;;;;;;;8.95;8.07;;;;;;;27.68;49.61;99379.81;5068882;28;20191;-67
2022/08/11 08:18:08;;;;;;;9.05;8.07;;;;;;;28.07;47.88;99375.78;5065435;28;20292;-59
2022/08/11 08:20:38;;;;;;;9.10;8.07;;;;;;;28.17;47.72;99375.28;5068481;28;21220;-59
2022/08/11 08:23:06;;;;;;;8.40;7.57;;;;;;;28.32;47.30;99367.31;5066035;28;20199;-58
2022/08/11 08:25:36;;;;;;;9.32;8.05;;;;;;;28.01;48.40;99383.19;5062579;28;20187;-58
2022/08/11 08:28:07;;;;;;;8.82;8.13;;;;;;;27.92;49.28;99367.88;5061993;28;20271;-59
2022/08/11 08:30:49;;;;;;;9.27;8.30;;;;;;;27.95;48.43;99372.97;5059673;28;20190;-59
2022/08/11 08:33:21;;;;;;;8.50;7.70;;;;;;;27.88;49.45;99369.00;5069046;28;20219;-60
2022/08/11 08:36:09;;;;;;;9.82;8.77;;;;;;;27.90;49.23;99364.47;5066455;28;20201;-59
2022/08/11 08:38:37;;;;;;;9.35;8.45;;;;;;;28.12;48.81;99366.78;5058444;28;20620;-59
2022/08/11 08:41:06;;;;;;;9.15;8.30;;;;;;;28.25;47.35;99370.41;5066974;28;20201;-58
2022/08/11 08:43:35;;;;;;;9.60;8.07;;;;;;;28.34;46.90;99360.16;5065468;28;20191;-59
2022/08/11 08:46:05;;;;;;;9.50;8.38;;;;;;;28.39;47.66;99368.66;5063864;28;20195;-57
2022/08/11 08:48:33;;;;;;;8.65;7.85;;;;;;;28.50;46.67;99358.31;5068945;28;20199;-68
